Aérodrome :
LOGIN :

S'inscrire | Disclaimer

   EN    FR    IT 

 










Légende :    VFR   VFR Marginal   IFR   IFR Intensif   IFR Très Intensif
Visi : 
Plafond : 
>= 8 km
>= 3000ft
5 à 8 km
1000 à 3000 ft
1500m à 5 km
500 à 1000 ft
800 à 1500m
200 à 500 ft
< 800m
< 200 ft
Symboles :   Orages  Brouillard  Fortes neiges  Fortes précipitations  Vent > 20 kt
SIGMETs :   Divers  Orages  Givrage  Turbulence  Onde Orograph.  Cendres Volcan.






- Altitude de l'aérodrome : 472 ft
- Code IATA : GME


UMGG - Gomel

DERNIER METAR :
  • 191900Z 20004MPS CAVOK 03/00 Q1015 R10/D NOSIG

METARs EXPIRÉS :
  • 191800Z 20004MPS CAVOK 04/00 Q1015 R10/D NOSIG
  • 191730Z 20003MPS CAVOK 04/00 Q1015 R10/CLRD// NOSIG
  • 191700Z 18003MPS CAVOK 04/00 Q1015 R28/D NOSIG
  • 191630Z 18003MPS CAVOK 05/00 Q1015 R28/D NOSIG

TAF TAF UMGG
Valide du 19 à 18h jusqu'au 20 à 18h UTC


191654Z 1918/2018 20005MPS 9999 BKN013 TX03/1918Z TNM00/2002Z
TEMPO 1921/2006 2000 -SHSNRA BR BKN005 SCT015CB
TEMPO 2010/2015 2100 -SHRASN BR BKN007 SCT015CB
TEMPO 2015/2018 2000 BR BKN005



MET'MAP, la Météo Aéronautique d'un coup d'oeil ! - Copyright ORBIFLY Décembre 2007 - Disclaimer

ORBIFLY MET'MAP TEAM :

Programmation & Développement : Alexandra Zaïnal
Sur une idée originale de : Baudouin d'Aumeries
Assistance à la programmation : Marc-Olivier Méhu
Soutien technique & logistique : Manuel Goepfert

Contact : metmap@orbifly.com




SOURCES & CREDITS :

   NOAA